sensor_id;sensor_type;location;lat;lon;timestamp;P1;durP1;ratioP1;P2;durP2;ratioP2
2009;SDS011;1008;47.404;8.502;2022-10-04T00:02:17;5.83;;;3.40;;
2009;SDS011;1008;47.404;8.502;2022-10-04T00:04:50;6.90;;;4.10;;
2009;SDS011;1008;47.404;8.502;2022-10-04T00:07:22;5.33;;;3.10;;
2009;SDS011;1008;47.404;8.502;2022-10-04T00:09:52;8.47;;;4.00;;
2009;SDS011;1008;47.404;8.502;2022-10-04T00:12:21;4.30;;;2.73;;
2009;SDS011;1008;47.404;8.502;2022-10-04T00:14:54;4.90;;;3.87;;
2009;SDS011;1008;47.404;8.502;2022-10-04T00:17:26;5.00;;;3.30;;
2009;SDS011;1008;47.404;8.502;2022-10-04T00:19:56;4.13;;;3.07;;
2009;SDS011;1008;47.404;8.502;2022-10-04T00:22:26;6.20;;;3.63;;
2009;SDS011;1008;47.404;8.502;2022-10-04T00:33:53;5.70;;;3.63;;
2009;SDS011;1008;47.404;8.502;2022-10-04T00:39:15;4.70;;;3.40;;
2009;SDS011;1008;47.404;8.502;2022-10-04T00:44:48;6.00;;;3.90;;
2009;SDS011;1008;47.404;8.502;2022-10-04T00:47:22;7.03;;;3.47;;
2009;SDS011;1008;47.404;8.502;2022-10-04T00:49:56;5.37;;;3.60;;
2009;SDS011;1008;47.404;8.502;2022-10-04T00:52:31;6.60;;;3.77;;
2009;SDS011;1008;47.404;8.502;2022-10-04T00:55:02;11.13;;;3.60;;
2009;SDS011;1008;47.404;8.502;2022-10-04T00:57:33;5.97;;;4.00;;
2009;SDS011;1008;47.404;8.502;2022-10-04T01:00:06;5.60;;;3.33;;
2009;SDS011;1008;47.404;8.502;2022-10-04T01:02:44;5.10;;;3.10;;
2009;SDS011;1008;47.404;8.502;2022-10-04T01:05:17;6.70;;;3.57;;
2009;SDS011;1008;47.404;8.502;2022-10-04T01:07:48;5.43;;;3.97;;
2009;SDS011;1008;47.404;8.502;2022-10-04T01:10:18;7.50;;;3.87;;
2009;SDS011;1008;47.404;8.502;2022-10-04T01:12:48;5.17;;;3.53;;
2009;SDS011;1008;47.404;8.502;2022-10-04T01:15:21;5.83;;;3.10;;
2009;SDS011;1008;47.404;8.502;2022-10-04T01:18:05;7.40;;;3.40;;
2009;SDS011;1008;47.404;8.502;2022-10-04T01:20:34;4.30;;;2.90;;
2009;SDS011;1008;47.404;8.502;2022-10-04T01:23:04;6.43;;;3.57;;
2009;SDS011;1008;47.404;8.502;2022-10-04T01:25:44;5.27;;;3.40;;
2009;SDS011;1008;47.404;8.502;2022-10-04T01:28:12;6.60;;;3.60;;
2009;SDS011;1008;47.404;8.502;2022-10-04T01:30:39;6.43;;;3.43;;
2009;SDS011;1008;47.404;8.502;2022-10-04T01:33:07;4.50;;;3.17;;
2009;SDS011;1008;47.404;8.502;2022-10-04T01:35:34;5.23;;;3.70;;
2009;SDS011;1008;47.404;8.502;2022-10-04T01:38:02;5.27;;;3.37;;
2009;SDS011;1008;47.404;8.502;2022-10-04T01:40:32;4.73;;;3.13;;
2009;SDS011;1008;47.404;8.502;2022-10-04T01:43:00;4.03;;;3.20;;
2009;SDS011;1008;47.404;8.502;2022-10-04T01:45:32;4.77;;;3.30;;
2009;SDS011;1008;47.404;8.502;2022-10-04T01:48:04;6.63;;;3.10;;
2009;SDS011;1008;47.404;8.502;2022-10-04T01:50:34;5.37;;;3.20;;
2009;SDS011;1008;47.404;8.502;2022-10-04T01:53:09;4.43;;;3.20;;
2009;SDS011;1008;47.404;8.502;2022-10-04T01:55:41;4.13;;;3.00;;
2009;SDS011;1008;47.404;8.502;2022-10-04T01:58:12;4.37;;;2.87;;
2009;SDS011;1008;47.404;8.502;2022-10-04T02:00:44;3.93;;;3.07;;
2009;SDS011;1008;47.404;8.502;2022-10-04T02:03:15;4.73;;;3.00;;
2009;SDS011;1008;47.404;8.502;2022-10-04T02:05:48;4.23;;;3.30;;
2009;SDS011;1008;47.404;8.502;2022-10-04T02:08:16;5.40;;;3.30;;
2009;SDS011;1008;47.404;8.502;2022-10-04T02:10:51;4.00;;;3.03;;
2009;SDS011;1008;47.404;8.502;2022-10-04T02:13:19;3.80;;;2.70;;
2009;SDS011;1008;47.404;8.502;2022-10-04T02:15:48;5.00;;;3.37;;
2009;SDS011;1008;47.404;8.502;2022-10-04T02:18:16;7.10;;;3.37;;
2009;SDS011;1008;47.404;8.502;2022-10-04T02:20:45;5.37;;;3.47;;
2009;SDS011;1008;47.404;8.502;2022-10-04T02:23:15;6.40;;;3.80;;
2009;SDS011;1008;47.404;8.502;2022-10-04T02:25:43;3.87;;;3.07;;
2009;SDS011;1008;47.404;8.502;2022-10-04T02:28:11;5.93;;;3.57;;
2009;SDS011;1008;47.404;8.502;2022-10-04T02:30:40;10.10;;;5.17;;
2009;SDS011;1008;47.404;8.502;2022-10-04T02:33:29;7.03;;;3.53;;
2009;SDS011;1008;47.404;8.502;2022-10-04T02:35:55;4.60;;;3.10;;
2009;SDS011;1008;47.404;8.502;2022-10-04T02:38:24;8.67;;;3.23;;
2009;SDS011;1008;47.404;8.502;2022-10-04T02:40:55;7.23;;;3.80;;
2009;SDS011;1008;47.404;8.502;2022-10-04T02:43:29;7.17;;;3.40;;
2009;SDS011;1008;47.404;8.502;2022-10-04T02:46:01;4.37;;;3.30;;
2009;SDS011;1008;47.404;8.502;2022-10-04T02:48:35;5.20;;;3.50;;
2009;SDS011;1008;47.404;8.502;2022-10-04T02:51:06;4.80;;;3.23;;
2009;SDS011;1008;47.404;8.502;2022-10-04T02:53:44;5.60;;;3.30;;
2009;SDS011;1008;47.404;8.502;2022-10-04T02:56:15;6.53;;;3.00;;
2009;SDS011;1008;47.404;8.502;2022-10-04T02:58:45;4.33;;;2.70;;
2009;SDS011;1008;47.404;8.502;2022-10-04T03:01:14;3.87;;;2.77;;
2009;SDS011;1008;47.404;8.502;2022-10-04T03:03:50;8.03;;;3.63;;
2009;SDS011;1008;47.404;8.502;2022-10-04T03:06:19;6.07;;;3.50;;
2009;SDS011;1008;47.404;8.502;2022-10-04T03:08:48;5.40;;;3.47;;
2009;SDS011;1008;47.404;8.502;2022-10-04T03:11:18;6.03;;;3.17;;
2009;SDS011;1008;47.404;8.502;2022-10-04T03:13:51;5.20;;;3.67;;
2009;SDS011;1008;47.404;8.502;2022-10-04T03:16:21;5.33;;;3.10;;
2009;SDS011;1008;47.404;8.502;2022-10-04T03:18:49;5.57;;;3.47;;
2009;SDS011;1008;47.404;8.502;2022-10-04T03:21:18;4.97;;;3.30;;
2009;SDS011;1008;47.404;8.502;2022-10-04T03:23:46;5.60;;;3.87;;
2009;SDS011;1008;47.404;8.502;2022-10-04T03:26:18;5.07;;;3.13;;
2009;SDS011;1008;47.404;8.502;2022-10-04T03:28:54;4.83;;;3.73;;
2009;SDS011;1008;47.404;8.502;2022-10-04T03:31:22;6.00;;;3.47;;
2009;SDS011;1008;47.404;8.502;2022-10-04T03:33:50;10.57;;;5.20;;
2009;SDS011;1008;47.404;8.502;2022-10-04T03:36:19;3.57;;;3.10;;
2009;SDS011;1008;47.404;8.502;2022-10-04T03:38:49;6.30;;;3.30;;
2009;SDS011;1008;47.404;8.502;2022-10-04T03:41:18;4.13;;;3.00;;
2009;SDS011;1008;47.404;8.502;2022-10-04T03:43:47;4.53;;;3.03;;
2009;SDS011;1008;47.404;8.502;2022-10-04T03:46:16;5.87;;;3.90;;
2009;SDS011;1008;47.404;8.502;2022-10-04T03:48:47;5.27;;;3.90;;
2009;SDS011;1008;47.404;8.502;2022-10-04T03:51:18;5.20;;;3.20;;
2009;SDS011;1008;47.404;8.502;2022-10-04T03:53:47;4.27;;;3.23;;
2009;SDS011;1008;47.404;8.502;2022-10-04T03:56:16;5.00;;;3.00;;
2009;SDS011;1008;47.404;8.502;2022-10-04T03:58:46;10.20;;;4.47;;
2009;SDS011;1008;47.404;8.502;2022-10-04T04:04:06;4.43;;;3.20;;
2009;SDS011;1008;47.404;8.502;2022-10-04T04:06:43;5.30;;;3.27;;
2009;SDS011;1008;47.404;8.502;2022-10-04T04:09:18;5.00;;;3.30;;
2009;SDS011;1008;47.404;8.502;2022-10-04T04:11:48;6.63;;;3.10;;
2009;SDS011;1008;47.404;8.502;2022-10-04T04:14:19;4.50;;;3.20;;
2009;SDS011;1008;47.404;8.502;2022-10-04T04:16:51;6.50;;;3.57;;
2009;SDS011;1008;47.404;8.502;2022-10-04T04:19:21;7.27;;;3.90;;
2009;SDS011;1008;47.404;8.502;2022-10-04T04:21:49;8.80;;;3.60;;
2009;SDS011;1008;47.404;8.502;2022-10-04T04:24:22;4.13;;;3.37;;
2009;SDS011;1008;47.404;8.502;2022-10-04T04:26:52;7.43;;;3.33;;
2009;SDS011;1008;47.404;8.502;2022-10-04T04:29:22;5.03;;;3.13;;
2009;SDS011;1008;47.404;8.502;2022-10-04T04:31:54;5.50;;;3.77;;
2009;SDS011;1008;47.404;8.502;2022-10-04T04:34:26;5.87;;;3.30;;
2009;SDS011;1008;47.404;8.502;2022-10-04T04:36:56;4.50;;;3.40;;
2009;SDS011;1008;47.404;8.502;2022-10-04T04:39:24;5.57;;;3.13;;
2009;SDS011;1008;47.404;8.502;2022-10-04T04:42:06;7.40;;;3.90;;
2009;SDS011;1008;47.404;8.502;2022-10-04T04:44:43;6.73;;;3.80;;
2009;SDS011;1008;47.404;8.502;2022-10-04T04:47:18;6.87;;;3.73;;
2009;SDS011;1008;47.404;8.502;2022-10-04T04:49:52;6.70;;;3.50;;
2009;SDS011;1008;47.404;8.502;2022-10-04T04:52:23;10.97;;;3.77;;
2009;SDS011;1008;47.404;8.502;2022-10-04T04:54:53;5.03;;;3.83;;
2009;SDS011;1008;47.404;8.502;2022-10-04T04:57:20;4.90;;;3.80;;
2009;SDS011;1008;47.404;8.502;2022-10-04T04:59:48;7.00;;;3.83;;
2009;SDS011;1008;47.404;8.502;2022-10-04T05:02:32;4.30;;;3.47;;
2009;SDS011;1008;47.404;8.502;2022-10-04T05:05:17;4.60;;;3.13;;
2009;SDS011;1008;47.404;8.502;2022-10-04T05:07:46;4.87;;;3.60;;
2009;SDS011;1008;47.404;8.502;2022-10-04T05:13:01;3.90;;;3.00;;
2009;SDS011;1008;47.404;8.502;2022-10-04T05:15:30;5.10;;;3.30;;
2009;SDS011;1008;47.404;8.502;2022-10-04T05:18:01;7.57;;;4.00;;
2009;SDS011;1008;47.404;8.502;2022-10-04T05:20:38;6.70;;;4.10;;
2009;SDS011;1008;47.404;8.502;2022-10-04T05:23:07;7.70;;;3.80;;
2009;SDS011;1008;47.404;8.502;2022-10-04T05:25:37;9.67;;;4.43;;
2009;SDS011;1008;47.404;8.502;2022-10-04T05:28:04;12.27;;;5.20;;
2009;SDS011;1008;47.404;8.502;2022-10-04T05:30:40;8.97;;;4.80;;
2009;SDS011;1008;47.404;8.502;2022-10-04T05:33:21;8.47;;;4.27;;
2009;SDS011;1008;47.404;8.502;2022-10-04T05:36:01;7.63;;;4.00;;
2009;SDS011;1008;47.404;8.502;2022-10-04T05:38:57;9.00;;;5.17;;
2009;SDS011;1008;47.404;8.502;2022-10-04T05:41:30;11.40;;;5.90;;
2009;SDS011;1008;47.404;8.502;2022-10-04T05:44:15;11.83;;;5.00;;
2009;SDS011;1008;47.404;8.502;2022-10-04T05:46:47;10.53;;;5.30;;
2009;SDS011;1008;47.404;8.502;2022-10-04T05:49:15;12.67;;;6.60;;
2009;SDS011;1008;47.404;8.502;2022-10-04T05:51:48;6.83;;;4.77;;
2009;SDS011;1008;47.404;8.502;2022-10-04T05:54:18;14.60;;;6.50;;
2009;SDS011;1008;47.404;8.502;2022-10-04T05:57:01;8.70;;;4.90;;
2009;SDS011;1008;47.404;8.502;2022-10-04T05:59:49;9.10;;;5.40;;
2009;SDS011;1008;47.404;8.502;2022-10-04T06:02:31;9.47;;;5.50;;
2009;SDS011;1008;47.404;8.502;2022-10-04T06:05:13;13.57;;;5.80;;
2009;SDS011;1008;47.404;8.502;2022-10-04T06:07:44;11.00;;;5.10;;
2009;SDS011;1008;47.404;8.502;2022-10-04T06:13:17;9.63;;;5.20;;
2009;SDS011;1008;47.404;8.502;2022-10-04T06:16:02;10.37;;;5.50;;
2009;SDS011;1008;47.404;8.502;2022-10-04T06:18:41;10.70;;;5.77;;
2009;SDS011;1008;47.404;8.502;2022-10-04T06:21:40;9.90;;;5.40;;
2009;SDS011;1008;47.404;8.502;2022-10-04T06:24:26;9.63;;;5.23;;
2009;SDS011;1008;47.404;8.502;2022-10-04T06:26:58;14.93;;;6.33;;
2009;SDS011;1008;47.404;8.502;2022-10-04T06:29:30;12.50;;;5.97;;
2009;SDS011;1008;47.404;8.502;2022-10-04T06:32:07;11.53;;;5.50;;
2009;SDS011;1008;47.404;8.502;2022-10-04T06:35:03;12.30;;;5.57;;
2009;SDS011;1008;47.404;8.502;2022-10-04T06:37:46;10.20;;;5.43;;
2009;SDS011;1008;47.404;8.502;2022-10-04T06:43:53;13.63;;;6.50;;
2009;SDS011;1008;47.404;8.502;2022-10-04T06:46:39;13.63;;;5.30;;
2009;SDS011;1008;47.404;8.502;2022-10-04T06:52:05;11.10;;;6.57;;
2009;SDS011;1008;47.404;8.502;2022-10-04T06:54:52;10.77;;;6.50;;
2009;SDS011;1008;47.404;8.502;2022-10-04T06:57:44;12.90;;;7.23;;
2009;SDS011;1008;47.404;8.502;2022-10-04T07:00:33;11.80;;;6.63;;
2009;SDS011;1008;47.404;8.502;2022-10-04T07:03:03;10.27;;;5.80;;
2009;SDS011;1008;47.404;8.502;2022-10-04T07:05:37;13.50;;;6.50;;
2009;SDS011;1008;47.404;8.502;2022-10-04T07:08:10;15.50;;;7.30;;
2009;SDS011;1008;47.404;8.502;2022-10-04T07:10:57;13.63;;;6.07;;
2009;SDS011;1008;47.404;8.502;2022-10-04T07:13:30;15.47;;;7.03;;
2009;SDS011;1008;47.404;8.502;2022-10-04T07:16:09;12.13;;;6.20;;
2009;SDS011;1008;47.404;8.502;2022-10-04T07:18:53;12.73;;;6.30;;
2009;SDS011;1008;47.404;8.502;2022-10-04T07:21:24;14.77;;;7.03;;
2009;SDS011;1008;47.404;8.502;2022-10-04T07:23:58;13.20;;;6.50;;
2009;SDS011;1008;47.404;8.502;2022-10-04T07:26:31;10.13;;;5.50;;
2009;SDS011;1008;47.404;8.502;2022-10-04T07:29:04;15.87;;;6.73;;
2009;SDS011;1008;47.404;8.502;2022-10-04T07:31:46;12.73;;;6.77;;
2009;SDS011;1008;47.404;8.502;2022-10-04T07:34:20;14.57;;;7.03;;
2009;SDS011;1008;47.404;8.502;2022-10-04T07:36:51;16.90;;;7.70;;
2009;SDS011;1008;47.404;8.502;2022-10-04T07:39:20;10.73;;;5.50;;
2009;SDS011;1008;47.404;8.502;2022-10-04T07:41:53;10.93;;;5.70;;
2009;SDS011;1008;47.404;8.502;2022-10-04T07:44:24;16.30;;;7.07;;
2009;SDS011;1008;47.404;8.502;2022-10-04T07:46:57;12.73;;;6.57;;
2009;SDS011;1008;47.404;8.502;2022-10-04T07:49:27;13.97;;;8.50;;
2009;SDS011;1008;47.404;8.502;2022-10-04T07:52:04;15.80;;;6.60;;
2009;SDS011;1008;47.404;8.502;2022-10-04T07:54:46;13.30;;;5.60;;
2009;SDS011;1008;47.404;8.502;2022-10-04T07:57:26;12.90;;;6.60;;
2009;SDS011;1008;47.404;8.502;2022-10-04T07:59:59;15.63;;;7.80;;
2009;SDS011;1008;47.404;8.502;2022-10-04T08:02:33;14.90;;;7.17;;
2009;SDS011;1008;47.404;8.502;2022-10-04T08:05:15;14.10;;;7.40;;
2009;SDS011;1008;47.404;8.502;2022-10-04T08:07:52;16.50;;;8.50;;
2009;SDS011;1008;47.404;8.502;2022-10-04T08:10:36;18.57;;;10.30;;
2009;SDS011;1008;47.404;8.502;2022-10-04T08:13:14;19.80;;;9.87;;
2009;SDS011;1008;47.404;8.502;2022-10-04T08:15:48;13.47;;;7.53;;
2009;SDS011;1008;47.404;8.502;2022-10-04T08:18:20;13.23;;;6.30;;
2009;SDS011;1008;47.404;8.502;2022-10-04T08:20:58;15.73;;;6.90;;
2009;SDS011;1008;47.404;8.502;2022-10-04T08:26:37;15.57;;;7.20;;
2009;SDS011;1008;47.404;8.502;2022-10-04T08:29:17;12.20;;;6.70;;
2009;SDS011;1008;47.404;8.502;2022-10-04T08:32:20;12.63;;;7.20;;
2009;SDS011;1008;47.404;8.502;2022-10-04T08:34:59;10.80;;;6.10;;
2009;SDS011;1008;47.404;8.502;2022-10-04T08:37:42;12.70;;;5.70;;
2009;SDS011;1008;47.404;8.502;2022-10-04T08:40:31;14.00;;;5.93;;
2009;SDS011;1008;47.404;8.502;2022-10-04T08:43:22;12.57;;;6.33;;
2009;SDS011;1008;47.404;8.502;2022-10-04T08:46:13;10.40;;;5.47;;
2009;SDS011;1008;47.404;8.502;2022-10-04T08:52:20;11.20;;;7.63;;
2009;SDS011;1008;47.404;8.502;2022-10-04T08:55:14;19.47;;;6.57;;
2009;SDS011;1008;47.404;8.502;2022-10-04T08:58:11;14.97;;;7.60;;
2009;SDS011;1008;47.404;8.502;2022-10-04T09:00:58;14.53;;;7.60;;
2009;SDS011;1008;47.404;8.502;2022-10-04T09:03:52;12.17;;;6.33;;
2009;SDS011;1008;47.404;8.502;2022-10-04T09:06:49;13.23;;;5.87;;
2009;SDS011;1008;47.404;8.502;2022-10-04T09:09:35;15.40;;;6.57;;
2009;SDS011;1008;47.404;8.502;2022-10-04T09:12:43;12.20;;;6.37;;
2009;SDS011;1008;47.404;8.502;2022-10-04T09:15:22;11.33;;;5.67;;
2009;SDS011;1008;47.404;8.502;2022-10-04T09:18:06;11.57;;;6.90;;
2009;SDS011;1008;47.404;8.502;2022-10-04T09:20:50;9.50;;;6.17;;
2009;SDS011;1008;47.404;8.502;2022-10-04T09:23:39;12.27;;;6.33;;
2009;SDS011;1008;47.404;8.502;2022-10-04T09:26:29;10.70;;;6.30;;
2009;SDS011;1008;47.404;8.502;2022-10-04T09:29:11;11.23;;;6.30;;
2009;SDS011;1008;47.404;8.502;2022-10-04T09:31:52;13.53;;;6.90;;
2009;SDS011;1008;47.404;8.502;2022-10-04T09:34:40;15.33;;;7.93;;
2009;SDS011;1008;47.404;8.502;2022-10-04T09:37:48;14.10;;;7.90;;
2009;SDS011;1008;47.404;8.502;2022-10-04T09:40:38;11.27;;;6.80;;
2009;SDS011;1008;47.404;8.502;2022-10-04T09:46:42;21.37;;;8.93;;
2009;SDS011;1008;47.404;8.502;2022-10-04T09:49:21;12.90;;;7.17;;
2009;SDS011;1008;47.404;8.502;2022-10-04T09:52:09;11.60;;;7.60;;
2009;SDS011;1008;47.404;8.502;2022-10-04T09:54:55;19.37;;;8.07;;
2009;SDS011;1008;47.404;8.502;2022-10-04T09:57:40;16.87;;;7.20;;
2009;SDS011;1008;47.404;8.502;2022-10-04T10:00:18;17.03;;;9.10;;
2009;SDS011;1008;47.404;8.502;2022-10-04T10:02:57;14.33;;;7.73;;
2009;SDS011;1008;47.404;8.502;2022-10-04T10:05:44;14.13;;;7.83;;
2009;SDS011;1008;47.404;8.502;2022-10-04T10:08:23;16.53;;;8.47;;
2009;SDS011;1008;47.404;8.502;2022-10-04T10:10:57;14.30;;;7.07;;
2009;SDS011;1008;47.404;8.502;2022-10-04T10:14:00;14.23;;;7.67;;
2009;SDS011;1008;47.404;8.502;2022-10-04T10:16:59;16.53;;;8.53;;
2009;SDS011;1008;47.404;8.502;2022-10-04T10:19:46;15.03;;;8.13;;
2009;SDS011;1008;47.404;8.502;2022-10-04T10:22:46;13.33;;;7.43;;
2009;SDS011;1008;47.404;8.502;2022-10-04T10:25:28;14.13;;;8.70;;
2009;SDS011;1008;47.404;8.502;2022-10-04T10:28:21;12.33;;;6.93;;
2009;SDS011;1008;47.404;8.502;2022-10-04T10:31:06;9.80;;;5.83;;
2009;SDS011;1008;47.404;8.502;2022-10-04T10:36:58;8.87;;;5.73;;
2009;SDS011;1008;47.404;8.502;2022-10-04T10:39:41;12.30;;;6.20;;
2009;SDS011;1008;47.404;8.502;2022-10-04T10:42:28;9.97;;;5.90;;
2009;SDS011;1008;47.404;8.502;2022-10-04T10:45:27;8.43;;;5.33;;
2009;SDS011;1008;47.404;8.502;2022-10-04T10:48:04;9.50;;;5.97;;
2009;SDS011;1008;47.404;8.502;2022-10-04T10:50:52;8.13;;;5.03;;
2009;SDS011;1008;47.404;8.502;2022-10-04T10:53:28;7.57;;;4.73;;
2009;SDS011;1008;47.404;8.502;2022-10-04T11:08:18;6.53;;;4.50;;
2009;SDS011;1008;47.404;8.502;2022-10-04T11:11:16;6.43;;;4.03;;
2009;SDS011;1008;47.404;8.502;2022-10-04T11:17:03;6.90;;;4.67;;
2009;SDS011;1008;47.404;8.502;2022-10-04T11:19:59;8.30;;;4.80;;
2009;SDS011;1008;47.404;8.502;2022-10-04T11:23:07;7.20;;;4.53;;
2009;SDS011;1008;47.404;8.502;2022-10-04T11:26:08;8.57;;;4.60;;
2009;SDS011;1008;47.404;8.502;2022-10-04T11:29:22;6.83;;;4.97;;
2009;SDS011;1008;47.404;8.502;2022-10-04T11:32:21;12.70;;;7.10;;
2009;SDS011;1008;47.404;8.502;2022-10-04T11:35:27;12.67;;;6.70;;
2009;SDS011;1008;47.404;8.502;2022-10-04T11:38:12;10.77;;;6.23;;
2009;SDS011;1008;47.404;8.502;2022-10-04T11:41:02;10.50;;;6.27;;
2009;SDS011;1008;47.404;8.502;2022-10-04T11:43:44;10.23;;;6.40;;
2009;SDS011;1008;47.404;8.502;2022-10-04T11:46:31;9.80;;;6.60;;
2009;SDS011;1008;47.404;8.502;2022-10-04T11:49:05;11.47;;;7.00;;
2009;SDS011;1008;47.404;8.502;2022-10-04T11:52:07;13.47;;;7.30;;
2009;SDS011;1008;47.404;8.502;2022-10-04T11:58:00;8.97;;;6.20;;
2009;SDS011;1008;47.404;8.502;2022-10-04T12:00:41;10.67;;;6.40;;
2009;SDS011;1008;47.404;8.502;2022-10-04T12:06:23;8.33;;;5.40;;
2009;SDS011;1008;47.404;8.502;2022-10-04T12:09:03;9.10;;;5.60;;
2009;SDS011;1008;47.404;8.502;2022-10-04T12:11:54;11.40;;;6.43;;
2009;SDS011;1008;47.404;8.502;2022-10-04T12:21:16;7.90;;;5.63;;
2009;SDS011;1008;47.404;8.502;2022-10-04T12:23:59;10.13;;;5.20;;
2009;SDS011;1008;47.404;8.502;2022-10-04T12:26:48;13.37;;;6.30;;
2009;SDS011;1008;47.404;8.502;2022-10-04T12:29:32;8.40;;;5.77;;
2009;SDS011;1008;47.404;8.502;2022-10-04T12:32:29;8.77;;;5.80;;
2009;SDS011;1008;47.404;8.502;2022-10-04T12:35:04;10.67;;;5.37;;
2009;SDS011;1008;47.404;8.502;2022-10-04T12:37:46;8.40;;;5.80;;
2009;SDS011;1008;47.404;8.502;2022-10-04T12:40:32;9.03;;;5.60;;
2009;SDS011;1008;47.404;8.502;2022-10-04T12:43:08;8.70;;;5.90;;
2009;SDS011;1008;47.404;8.502;2022-10-04T12:45:52;10.40;;;6.20;;
2009;SDS011;1008;47.404;8.502;2022-10-04T12:48:39;7.67;;;5.43;;
2009;SDS011;1008;47.404;8.502;2022-10-04T12:51:24;7.87;;;5.13;;
2009;SDS011;1008;47.404;8.502;2022-10-04T12:54:06;8.17;;;5.30;;
2009;SDS011;1008;47.404;8.502;2022-10-04T12:56:45;7.30;;;5.47;;
2009;SDS011;1008;47.404;8.502;2022-10-04T12:59:30;8.67;;;5.33;;
2009;SDS011;1008;47.404;8.502;2022-10-04T13:02:09;7.47;;;4.50;;
2009;SDS011;1008;47.404;8.502;2022-10-04T13:04:51;6.10;;;4.30;;
2009;SDS011;1008;47.404;8.502;2022-10-04T13:07:23;5.33;;;4.30;;
2009;SDS011;1008;47.404;8.502;2022-10-04T13:10:14;6.87;;;5.07;;
2009;SDS011;1008;47.404;8.502;2022-10-04T13:13:00;6.67;;;4.50;;
2009;SDS011;1008;47.404;8.502;2022-10-04T13:15:50;6.07;;;4.67;;
2009;SDS011;1008;47.404;8.502;2022-10-04T13:18:24;6.20;;;4.10;;
2009;SDS011;1008;47.404;8.502;2022-10-04T13:20:58;5.97;;;4.50;;
2009;SDS011;1008;47.404;8.502;2022-10-04T13:23:32;5.47;;;3.97;;
2009;SDS011;1008;47.404;8.502;2022-10-04T13:26:10;6.50;;;4.13;;
2009;SDS011;1008;47.404;8.502;2022-10-04T13:28:49;7.20;;;5.33;;
2009;SDS011;1008;47.404;8.502;2022-10-04T13:31:28;7.40;;;4.97;;
2009;SDS011;1008;47.404;8.502;2022-10-04T13:34:00;7.90;;;5.33;;
2009;SDS011;1008;47.404;8.502;2022-10-04T13:36:43;7.10;;;5.17;;
2009;SDS011;1008;47.404;8.502;2022-10-04T13:39:25;6.77;;;4.77;;
2009;SDS011;1008;47.404;8.502;2022-10-04T13:42:18;6.30;;;4.77;;
2009;SDS011;1008;47.404;8.502;2022-10-04T13:45:00;6.73;;;4.23;;
2009;SDS011;1008;47.404;8.502;2022-10-04T13:47:46;7.90;;;4.30;;
2009;SDS011;1008;47.404;8.502;2022-10-04T13:50:30;5.10;;;4.00;;
2009;SDS011;1008;47.404;8.502;2022-10-04T13:53:11;5.47;;;4.50;;
2009;SDS011;1008;47.404;8.502;2022-10-04T13:56:06;7.43;;;3.97;;
2009;SDS011;1008;47.404;8.502;2022-10-04T13:59:06;4.40;;;3.80;;
2009;SDS011;1008;47.404;8.502;2022-10-04T14:02:00;5.27;;;3.97;;
2009;SDS011;1008;47.404;8.502;2022-10-04T14:08:04;4.67;;;3.57;;
2009;SDS011;1008;47.404;8.502;2022-10-04T14:11:03;4.80;;;3.40;;
2009;SDS011;1008;47.404;8.502;2022-10-04T14:13:59;6.60;;;4.20;;
2009;SDS011;1008;47.404;8.502;2022-10-04T14:17:04;6.40;;;4.70;;
2009;SDS011;1008;47.404;8.502;2022-10-04T14:19:51;5.53;;;3.93;;
2009;SDS011;1008;47.404;8.502;2022-10-04T14:22:39;9.00;;;5.13;;
2009;SDS011;1008;47.404;8.502;2022-10-04T14:25:33;7.10;;;4.67;;
2009;SDS011;1008;47.404;8.502;2022-10-04T14:28:26;6.43;;;4.50;;
2009;SDS011;1008;47.404;8.502;2022-10-04T14:31:14;8.00;;;4.40;;
2009;SDS011;1008;47.404;8.502;2022-10-04T14:34:03;7.20;;;5.40;;
2009;SDS011;1008;47.404;8.502;2022-10-04T14:37:10;6.10;;;4.40;;
2009;SDS011;1008;47.404;8.502;2022-10-04T14:40:03;7.47;;;4.93;;
2009;SDS011;1008;47.404;8.502;2022-10-04T14:45:50;7.70;;;4.40;;
2009;SDS011;1008;47.404;8.502;2022-10-04T14:48:41;6.53;;;4.67;;
2009;SDS011;1008;47.404;8.502;2022-10-04T14:51:33;6.77;;;4.73;;
2009;SDS011;1008;47.404;8.502;2022-10-04T14:54:11;6.27;;;4.50;;
2009;SDS011;1008;47.404;8.502;2022-10-04T14:56:47;7.07;;;4.53;;
2009;SDS011;1008;47.404;8.502;2022-10-04T14:59:38;7.67;;;4.70;;
2009;SDS011;1008;47.404;8.502;2022-10-04T15:02:46;6.57;;;4.60;;
2009;SDS011;1008;47.404;8.502;2022-10-04T15:05:27;9.43;;;5.40;;
2009;SDS011;1008;47.404;8.502;2022-10-04T15:08:25;8.00;;;4.57;;
2009;SDS011;1008;47.404;8.502;2022-10-04T15:11:16;7.73;;;5.50;;
2009;SDS011;1008;47.404;8.502;2022-10-04T15:13:59;8.40;;;4.33;;
2009;SDS011;1008;47.404;8.502;2022-10-04T15:16:35;5.63;;;3.87;;
2009;SDS011;1008;47.404;8.502;2022-10-04T15:19:07;5.60;;;4.10;;
2009;SDS011;1008;47.404;8.502;2022-10-04T15:21:50;5.47;;;3.97;;
2009;SDS011;1008;47.404;8.502;2022-10-04T15:24:26;3.77;;;3.10;;
2009;SDS011;1008;47.404;8.502;2022-10-04T15:29:58;5.80;;;3.70;;
2009;SDS011;1008;47.404;8.502;2022-10-04T15:32:35;5.50;;;3.70;;
2009;SDS011;1008;47.404;8.502;2022-10-04T15:35:12;6.80;;;3.83;;
2009;SDS011;1008;47.404;8.502;2022-10-04T15:37:45;3.43;;;3.07;;
2009;SDS011;1008;47.404;8.502;2022-10-04T15:40:20;4.10;;;3.30;;
2009;SDS011;1008;47.404;8.502;2022-10-04T15:48:57;4.50;;;3.60;;
2009;SDS011;1008;47.404;8.502;2022-10-04T15:51:41;4.30;;;3.13;;
2009;SDS011;1008;47.404;8.502;2022-10-04T15:54:38;4.03;;;3.07;;
2009;SDS011;1008;47.404;8.502;2022-10-04T15:57:26;3.70;;;3.20;;
2009;SDS011;1008;47.404;8.502;2022-10-04T16:00:01;5.30;;;3.47;;
2009;SDS011;1008;47.404;8.502;2022-10-04T16:05:40;5.77;;;4.17;;
2009;SDS011;1008;47.404;8.502;2022-10-04T16:08:17;3.30;;;2.73;;
2009;SDS011;1008;47.404;8.502;2022-10-04T16:11:12;5.00;;;3.70;;
2009;SDS011;1008;47.404;8.502;2022-10-04T16:14:01;10.60;;;3.40;;
2009;SDS011;1008;47.404;8.502;2022-10-04T16:16:48;4.83;;;3.67;;
2009;SDS011;1008;47.404;8.502;2022-10-04T16:22:27;3.07;;;2.80;;
2009;SDS011;1008;47.404;8.502;2022-10-04T16:24:56;3.50;;;3.00;;
2009;SDS011;1008;47.404;8.502;2022-10-04T16:30:28;3.27;;;2.97;;
2009;SDS011;1008;47.404;8.502;2022-10-04T16:33:04;3.90;;;3.00;;
2009;SDS011;1008;47.404;8.502;2022-10-04T16:35:59;3.10;;;2.43;;
2009;SDS011;1008;47.404;8.502;2022-10-04T16:38:32;4.20;;;3.10;;
2009;SDS011;1008;47.404;8.502;2022-10-04T16:41:30;4.23;;;2.90;;
2009;SDS011;1008;47.404;8.502;2022-10-04T16:44:04;3.40;;;2.90;;
2009;SDS011;1008;47.404;8.502;2022-10-04T16:46:47;5.73;;;3.27;;
2009;SDS011;1008;47.404;8.502;2022-10-04T16:49:19;5.00;;;3.07;;
2009;SDS011;1008;47.404;8.502;2022-10-04T16:51:56;4.80;;;3.30;;
2009;SDS011;1008;47.404;8.502;2022-10-04T17:04:27;3.80;;;3.27;;
2009;SDS011;1008;47.404;8.502;2022-10-04T17:07:12;5.40;;;3.80;;
2009;SDS011;1008;47.404;8.502;2022-10-04T17:09:52;5.70;;;3.80;;
2009;SDS011;1008;47.404;8.502;2022-10-04T17:12:27;5.87;;;3.73;;
2009;SDS011;1008;47.404;8.502;2022-10-04T17:15:10;6.17;;;4.50;;
2009;SDS011;1008;47.404;8.502;2022-10-04T17:18:14;5.30;;;3.77;;
2009;SDS011;1008;47.404;8.502;2022-10-04T17:20:48;7.50;;;4.10;;
2009;SDS011;1008;47.404;8.502;2022-10-04T17:23:25;6.07;;;4.00;;
2009;SDS011;1008;47.404;8.502;2022-10-04T17:26:20;5.37;;;3.67;;
2009;SDS011;1008;47.404;8.502;2022-10-04T17:29:15;4.60;;;3.80;;
2009;SDS011;1008;47.404;8.502;2022-10-04T17:31:56;6.23;;;4.23;;
2009;SDS011;1008;47.404;8.502;2022-10-04T17:34:32;4.90;;;3.90;;
2009;SDS011;1008;47.404;8.502;2022-10-04T17:37:11;5.73;;;4.60;;
2009;SDS011;1008;47.404;8.502;2022-10-04T17:39:46;5.77;;;4.13;;
2009;SDS011;1008;47.404;8.502;2022-10-04T17:42:19;7.93;;;5.27;;
2009;SDS011;1008;47.404;8.502;2022-10-04T17:48:06;4.13;;;3.20;;
2009;SDS011;1008;47.404;8.502;2022-10-04T17:50:55;6.73;;;3.93;;
2009;SDS011;1008;47.404;8.502;2022-10-04T17:53:46;4.70;;;3.90;;
2009;SDS011;1008;47.404;8.502;2022-10-04T17:56:35;6.83;;;4.53;;
2009;SDS011;1008;47.404;8.502;2022-10-04T17:59:08;4.17;;;3.77;;
2009;SDS011;1008;47.404;8.502;2022-10-04T18:01:40;4.90;;;4.10;;
2009;SDS011;1008;47.404;8.502;2022-10-04T18:04:13;7.17;;;5.03;;
2009;SDS011;1008;47.404;8.502;2022-10-04T18:06:48;5.63;;;4.20;;
2009;SDS011;1008;47.404;8.502;2022-10-04T18:09:20;16.43;;;9.87;;
2009;SDS011;1008;47.404;8.502;2022-10-04T18:11:52;7.20;;;4.30;;
2009;SDS011;1008;47.404;8.502;2022-10-04T18:17:12;6.20;;;4.50;;